Time;durP1;ratioP1;P1;durP2;ratioP2;P2;SDS_P1;SDS_P2;PMS_P1;PMS_P2;Temp;Humidity;BMP_temperature;BMP_pressure;BME280_temperature;BME280_humidity;BME280_pressure;Samples;Min_cycle;Max_cycle;Signal;HPM_P1;HPM_P2
2023/05/09 00:01:30;;;;;;;1.90;1.80;;;23.00;44.90;;;;;;5008818;28;20053;-58
2023/05/09 00:03:59;;;;;;;1.60;1.50;;;23.00;44.90;;;;;;5002790;28;20133;-58
2023/05/09 00:06:26;;;;;;;1.83;1.60;;;23.00;44.80;;;;;;4995330;28;20046;-56
2023/05/09 00:08:54;;;;;;;1.52;1.42;;;23.10;44.80;;;;;;4997991;28;20053;-58
2023/05/09 00:11:22;;;;;;;1.63;1.52;;;23.10;44.80;;;;;;4997286;28;20047;-56
2023/05/09 00:13:49;;;;;;;2.20;1.92;;;23.00;44.70;;;;;;4997257;28;20049;-58
2023/05/09 00:16:19;;;;;;;3.75;1.40;;;23.00;44.70;;;;;;4996896;28;20080;-57
2023/05/09 00:18:46;;;;;;;2.00;1.80;;;23.00;44.80;;;;;;4997445;28;20050;-58
2023/05/09 00:21:13;;;;;;;1.90;1.80;;;23.00;44.80;;;;;;4997709;28;20200;-57
2023/05/09 00:23:41;;;;;;;1.73;1.63;;;23.00;44.70;;;;;;4997420;28;20133;-59
2023/05/09 00:26:09;;;;;;;3.40;1.65;;;23.00;44.70;;;;;;4997163;28;20054;-57
2023/05/09 00:28:36;;;;;;;1.95;1.75;;;23.00;44.70;;;;;;4996610;28;20046;-58
2023/05/09 00:31:04;;;;;;;1.38;1.27;;;23.00;44.80;;;;;;4996852;28;20401;-58
2023/05/09 00:33:31;;;;;;;1.77;1.58;;;22.90;44.70;;;;;;4996299;28;20050;-57
2023/05/09 00:35:58;;;;;;;1.33;1.23;;;23.00;44.70;;;;;;4996815;28;20046;-58
2023/05/09 00:38:26;;;;;;;4.53;2.20;;;23.00;44.70;;;;;;4995693;28;20057;-58
2023/05/09 00:40:53;;;;;;;1.30;1.30;;;23.00;44.70;;;;;;4996273;28;20054;-58
2023/05/09 00:43:20;;;;;;;1.50;1.42;;;22.90;44.70;;;;;;4997117;28;20057;-58
2023/05/09 00:45:48;;;;;;;2.88;1.55;;;22.90;44.70;;;;;;4996904;28;20085;-57
2023/05/09 00:48:15;;;;;;;1.60;1.50;;;22.90;44.70;;;;;;4996619;28;20093;-56
2023/05/09 00:50:42;;;;;;;2.03;1.00;;;22.90;44.70;;;;;;4996732;28;20586;-57
2023/05/09 00:53:10;;;;;;;1.65;1.55;;;22.90;44.70;;;;;;4996571;28;20081;-57
2023/05/09 00:55:37;;;;;;;1.52;1.42;;;22.90;44.70;;;;;;4995821;28;20134;-57
2023/05/09 00:58:05;;;;;;;1.40;1.30;;;22.90;44.70;;;;;;4996556;28;20514;-56
2023/05/09 01:00:32;;;;;;;1.52;1.42;;;22.90;44.70;;;;;;4995978;28;20043;-57
2023/05/09 01:02:59;;;;;;;1.75;1.42;;;22.90;44.80;;;;;;4995038;28;20060;-58
2023/05/09 01:05:35;;;;;;;1.45;1.35;;;22.90;44.80;;;;;;4996406;28;20050;-55
2023/05/09 01:08:27;;;;;;;1.40;1.30;;;22.90;44.90;;;;;;4995573;28;20498;-56
2023/05/09 01:11:03;;;;;;;1.35;1.25;;;22.80;44.90;;;;;;4995475;28;20064;-58
2023/05/09 01:13:40;;;;;;;1.20;1.20;;;22.80;44.90;;;;;;4996052;28;20136;-58
2023/05/09 01:16:22;;;;;;;1.58;1.42;;;22.80;45.00;;;;;;4995984;28;20089;-57
2023/05/09 01:19:29;;;;;;;1.92;1.63;;;22.80;45.00;;;;;;4996057;28;20053;-59
2023/05/09 01:21:58;;;;;;;1.35;1.25;;;22.80;45.00;;;;;;4995576;28;20054;-58
2023/05/09 01:25:04;;;;;;;1.20;1.17;;;22.80;45.10;;;;;;4994726;28;20050;-58
2023/05/09 01:27:49;;;;;;;1.55;1.45;;;22.70;45.00;;;;;;4994607;28;20078;-57
2023/05/09 01:30:18;;;;;;;1.25;1.15;;;22.70;45.10;;;;;;4995462;28;20077;-57
2023/05/09 01:32:50;;;;;;;1.25;1.20;;;22.70;45.00;;;;;;4995888;28;20046;-56
2023/05/09 01:35:20;;;;;;;1.50;1.40;;;22.70;45.10;;;;;;4996205;28;20450;-57
2023/05/09 01:37:49;;;;;;;6.10;1.75;;;22.70;45.00;;;;;;5015376;28;20089;-57
2023/05/09 01:40:20;;;;;;;1.70;1.60;;;22.70;45.00;;;;;;5015143;28;20085;-58
2023/05/09 01:43:07;;;;;;;1.10;1.10;;;22.70;44.90;;;;;;5014469;28;20054;-57
2023/05/09 01:45:35;;;;;;;1.02;1.02;;;22.70;44.90;;;;;;5014741;28;20049;-58
2023/05/09 01:48:04;;;;;;;1.13;1.10;;;22.80;44.80;;;;;;5013891;28;20064;-58
2023/05/09 01:50:34;;;;;;;1.35;1.23;;;22.80;44.80;;;;;;5014636;28;20093;-57
2023/05/09 01:53:03;;;;;;;1.33;1.27;;;22.80;44.70;;;;;;5014974;28;20460;-55
2023/05/09 01:55:33;;;;;;;1.35;1.25;;;22.80;44.60;;;;;;5014515;28;20362;-58
2023/05/09 01:58:04;;;;;;;1.40;1.30;;;22.80;44.60;;;;;;5014508;28;20510;-57
2023/05/09 02:00:33;;;;;;;1.42;1.00;;;22.80;44.60;;;;;;5014580;28;20046;-58
2023/05/09 02:03:02;;;;;;;1.60;1.50;;;22.80;44.60;;;;;;5014087;28;20092;-58
2023/05/09 02:05:31;;;;;;;1.30;1.30;;;22.80;44.60;;;;;;5014322;28;20474;-58
2023/05/09 02:07:58;;;;;;;1.17;1.17;;;22.80;44.60;;;;;;5014302;28;20085;-58
2023/05/09 02:10:30;;;;;;;1.27;1.23;;;22.80;44.60;;;;;;5014570;28;20054;-57
2023/05/09 02:12:57;;;;;;;2.65;1.40;;;22.80;44.50;;;;;;4996647;28;20054;-58
2023/05/09 02:15:25;;;;;;;1.35;1.25;;;22.80;44.50;;;;;;4994063;28;20046;-57
2023/05/09 02:17:52;;;;;;;1.08;1.05;;;22.80;44.50;;;;;;4995476;28;20077;-57
2023/05/09 02:20:20;;;;;;;1.77;1.40;;;22.80;44.50;;;;;;4994669;28;20047;-57
2023/05/09 02:22:47;;;;;;;2.38;1.13;;;22.80;44.50;;;;;;4994334;28;20162;-57
2023/05/09 02:25:17;;;;;;;2.38;1.08;;;22.80;44.50;;;;;;4994365;28;20057;-57
2023/05/09 02:27:45;;;;;;;1.35;1.25;;;22.70;44.40;;;;;;4994356;28;20046;-58
2023/05/09 02:30:24;;;;;;;1.25;1.15;;;22.70;44.50;;;;;;4994419;28;20052;-58
2023/05/09 02:32:56;;;;;;;1.83;1.58;;;22.70;44.50;;;;;;4994490;28;20461;-57
2023/05/09 02:35:26;;;;;;;1.08;1.02;;;22.70;44.50;;;;;;4994825;28;20566;-57
2023/05/09 02:37:54;;;;;;;1.00;0.90;;;22.70;44.40;;;;;;4994980;28;20120;-58
2023/05/09 02:40:23;;;;;;;1.10;1.10;;;22.70;44.40;;;;;;4994647;28;20078;-57
2023/05/09 02:42:50;;;;;;;1.02;1.02;;;22.70;44.40;;;;;;4994451;28;20056;-57
2023/05/09 02:45:17;;;;;;;1.17;1.17;;;22.70;44.50;;;;;;4994814;28;20137;-57
2023/05/09 02:47:45;;;;;;;1.13;1.02;;;22.70;44.40;;;;;;4994064;28;20054;-58
2023/05/09 02:50:12;;;;;;;1.40;1.10;;;22.70;44.50;;;;;;4994430;28;20057;-57
2023/05/09 02:52:39;;;;;;;1.27;1.17;;;22.60;44.40;;;;;;4994232;28;20173;-56
2023/05/09 02:55:08;;;;;;;1.42;1.13;;;22.70;44.50;;;;;;4994657;28;20074;-58
2023/05/09 02:57:35;;;;;;;1.08;1.08;;;22.70;44.50;;;;;;4994772;28;20056;-58
2023/05/09 03:00:07;;;;;;;1.30;1.20;;;22.60;44.40;;;;;;4994034;28;20054;-57
2023/05/09 03:02:36;;;;;;;0.88;0.88;;;22.60;44.40;;;;;;4994337;28;20085;-58
2023/05/09 03:05:03;;;;;;;1.40;1.30;;;22.60;44.50;;;;;;4993427;28;20522;-58
2023/05/09 03:07:30;;;;;;;1.10;1.10;;;22.60;45.10;;;;;;4994126;28;20046;-58
2023/05/09 03:09:57;;;;;;;1.08;1.00;;;22.60;44.60;;;;;;4994086;28;20051;-57
2023/05/09 03:12:25;;;;;;;1.17;1.08;;;22.60;44.60;;;;;;4993381;28;20137;-57
2023/05/09 03:14:52;;;;;;;1.40;1.13;;;22.60;44.70;;;;;;4992462;28;20133;-57
2023/05/09 03:17:20;;;;;;;1.58;1.48;;;22.60;44.70;;;;;;4993899;28;20100;-57
2023/05/09 03:19:47;;;;;;;1.30;1.20;;;22.60;44.70;;;;;;4993939;28;20502;-57
2023/05/09 03:22:15;;;;;;;0.90;0.77;;;22.60;44.80;;;;;;4993297;28;20144;-58
2023/05/09 03:24:42;;;;;;;2.20;1.20;;;22.50;44.70;;;;;;4993818;28;20601;-58
2023/05/09 03:27:09;;;;;;;2.28;1.13;;;22.50;44.70;;;;;;4993537;28;20057;-58
2023/05/09 03:29:36;;;;;;;0.60;0.60;;;22.60;44.70;;;;;;4993661;28;20050;-57
2023/05/09 03:32:04;;;;;;;0.77;0.75;;;22.60;44.60;;;;;;5008449;28;20054;-58
2023/05/09 03:34:31;;;;;;;1.08;1.00;;;22.60;44.50;;;;;;5013134;28;20069;-57
2023/05/09 03:36:58;;;;;;;1.20;1.10;;;22.60;44.40;;;;;;5013141;28;20088;-57
2023/05/09 03:39:25;;;;;;;0.95;0.95;;;22.60;44.30;;;;;;5012340;28;20049;-56
2023/05/09 03:41:52;;;;;;;1.35;1.20;;;22.70;44.40;;;;;;5012118;28;20145;-57
2023/05/09 03:44:20;;;;;;;0.95;0.95;;;22.60;44.30;;;;;;5013601;28;20050;-58
2023/05/09 03:46:47;;;;;;;1.48;1.17;;;22.70;44.30;;;;;;5012956;28;20050;-58
2023/05/09 03:49:14;;;;;;;0.90;0.90;;;22.70;44.20;;;;;;5009824;28;20104;-59
2023/05/09 03:51:41;;;;;;;1.20;1.10;;;22.70;44.10;;;;;;4993997;28;20072;-58
2023/05/09 03:54:08;;;;;;;1.13;1.08;;;22.70;44.10;;;;;;5009277;28;20041;-58
2023/05/09 03:56:35;;;;;;;1.15;1.05;;;22.70;44.10;;;;;;5013279;28;20045;-57
2023/05/09 03:59:03;;;;;;;1.08;0.98;;;22.70;44.00;;;;;;5012993;28;20124;-57
2023/05/09 04:01:30;;;;;;;0.75;0.75;;;22.80;44.00;;;;;;5012148;28;20054;-57
2023/05/09 04:03:57;;;;;;;0.90;0.90;;;22.70;43.90;;;;;;5013029;28;20046;-57
2023/05/09 04:06:24;;;;;;;3.10;1.13;;;22.80;43.90;;;;;;5011538;28;20482;-57
2023/05/09 04:08:51;;;;;;;1.10;0.95;;;22.80;43.90;;;;;;4993646;28;20470;-58
2023/05/09 04:11:20;;;;;;;1.33;1.23;;;22.80;43.90;;;;;;5000208;28;20132;-58
2023/05/09 04:13:48;;;;;;;1.27;0.95;;;22.80;43.90;;;;;;5002872;28;20521;-57
2023/05/09 04:16:15;;;;;;;0.80;0.80;;;22.80;43.80;;;;;;5001301;28;20454;-58
2023/05/09 04:18:42;;;;;;;1.35;1.25;;;22.80;43.80;;;;;;5013311;28;20052;-57
2023/05/09 04:21:10;;;;;;;0.90;0.90;;;22.80;43.80;;;;;;5008997;28;20533;-58
2023/05/09 04:23:37;;;;;;;2.72;1.10;;;22.80;43.70;;;;;;5004013;28;20400;-57
2023/05/09 04:26:05;;;;;;;1.92;0.90;;;22.80;43.80;;;;;;4996820;28;20104;-57
2023/05/09 04:28:32;;;;;;;1.23;1.10;;;22.80;43.70;;;;;;5002415;28;20050;-57
2023/05/09 04:30:59;;;;;;;1.00;0.90;;;22.90;43.80;;;;;;5002228;28;20566;-58
2023/05/09 04:33:27;;;;;;;0.60;0.60;;;22.80;43.70;;;;;;4995366;28;20076;-57
2023/05/09 04:35:56;;;;;;;1.35;1.25;;;22.90;43.70;;;;;;5012103;28;20133;-57
2023/05/09 04:38:23;;;;;;;0.85;0.85;;;22.90;43.60;;;;;;4998879;28;20112;-58
2023/05/09 04:40:51;;;;;;;1.13;1.00;;;22.90;43.30;;;;;;4998936;28;20397;-58
2023/05/09 04:43:19;;;;;;;1.38;1.30;;;22.90;43.20;;;;;;5009926;28;20045;-57
2023/05/09 04:45:46;;;;;;;3.60;1.83;;;22.90;43.20;;;;;;5008487;28;20497;-57
2023/05/09 04:48:14;;;;;;;2.00;1.02;;;22.90;43.10;;;;;;5004991;28;20054;-57
2023/05/09 04:50:41;;;;;;;2.15;1.45;;;22.90;43.00;;;;;;5007668;28;20084;-58
2023/05/09 04:53:09;;;;;;;1.13;1.02;;;22.90;43.00;;;;;;5002987;28;20410;-57
2023/05/09 04:55:37;;;;;;;1.00;1.00;;;22.90;42.90;;;;;;5009838;28;20472;-57
2023/05/09 04:58:04;;;;;;;1.40;1.30;;;22.90;42.80;;;;;;5006892;28;20558;-58
2023/05/09 05:00:32;;;;;;;1.92;1.17;;;22.90;42.60;;;;;;5009351;28;20387;-57
2023/05/09 05:02:59;;;;;;;1.65;1.30;;;22.90;42.50;;;;;;5001737;28;20046;-57
2023/05/09 05:05:27;;;;;;;1.33;1.23;;;22.90;42.40;;;;;;5005844;28;20073;-58
2023/05/09 05:07:54;;;;;;;2.67;1.20;;;23.00;42.30;;;;;;5009506;28;20077;-56
2023/05/09 05:10:21;;;;;;;1.23;1.13;;;23.00;42.10;;;;;;5015008;28;20080;-57
2023/05/09 05:12:49;;;;;;;1.63;1.52;;;23.00;41.90;;;;;;5013165;28;20050;-58
2023/05/09 05:15:18;;;;;;;1.88;1.33;;;23.00;41.80;;;;;;5008358;28;20050;-57
2023/05/09 05:17:45;;;;;;;1.88;1.38;;;23.10;41.70;;;;;;5013929;28;20061;-56
2023/05/09 05:20:13;;;;;;;1.60;1.50;;;23.10;41.50;;;;;;5011906;28;20415;-57
2023/05/09 05:22:40;;;;;;;1.20;1.10;;;23.10;41.30;;;;;;5013142;28;20204;-58
2023/05/09 05:25:07;;;;;;;1.77;1.67;;;23.10;41.10;;;;;;5008943;28;20053;-55
2023/05/09 05:27:35;;;;;;;2.55;2.08;;;23.10;41.00;;;;;;5004132;28;20399;-56
2023/05/09 05:30:03;;;;;;;3.10;1.42;;;23.20;40.90;;;;;;4991924;28;20061;-55
2023/05/09 05:32:31;;;;;;;1.70;1.60;;;23.20;40.80;;;;;;5013273;28;20046;-51
2023/05/09 05:35:03;;;;;;;5.90;1.92;;;23.20;40.60;;;;;;5007627;28;20054;-50
2023/05/09 05:37:30;;;;;;;2.40;1.50;;;23.20;40.50;;;;;;5008585;28;20108;-57
2023/05/09 05:39:57;;;;;;;1.40;1.30;;;23.30;40.50;;;;;;5001701;28;20053;-55
2023/05/09 05:42:25;;;;;;;2.22;1.48;;;23.30;40.30;;;;;;5004107;28;20136;-55
2023/05/09 05:44:52;;;;;;;1.63;1.52;;;23.30;40.20;;;;;;5006326;28;20121;-51
2023/05/09 05:47:19;;;;;;;1.50;1.40;;;23.30;40.10;;;;;;5007114;28;20139;-53
2023/05/09 05:49:46;;;;;;;2.50;1.48;;;23.40;40.10;;;;;;5008397;28;20132;-57
2023/05/09 05:52:15;;;;;;;2.05;1.35;;;23.40;40.10;;;;;;5007049;28;20053;-56
2023/05/09 05:54:42;;;;;;;3.47;1.40;;;23.40;40.10;;;;;;5001760;28;20406;-57
2023/05/09 05:57:10;;;;;;;4.75;1.88;;;23.50;40.00;;;;;;4998230;28;20132;-57
2023/05/09 05:59:37;;;;;;;1.30;1.20;;;23.40;39.90;;;;;;5001738;28;20501;-57
2023/05/09 06:02:04;;;;;;;1.45;1.35;;;23.50;39.90;;;;;;4999172;28;20426;-57
2023/05/09 06:04:32;;;;;;;1.70;1.60;;;23.50;39.90;;;;;;5002903;28;20058;-58
2023/05/09 06:06:59;;;;;;;1.67;1.58;;;23.50;39.90;;;;;;5006177;28;20046;-59
2023/05/09 06:09:26;;;;;;;2.20;1.95;;;23.60;40.00;;;;;;5001081;28;20123;-57
2023/05/09 06:11:53;;;;;;;1.90;1.80;;;23.60;39.90;;;;;;5008902;28;20081;-59
2023/05/09 06:14:20;;;;;;;2.35;1.75;;;23.60;39.80;;;;;;5007620;28;20062;-59
2023/05/09 06:16:48;;;;;;;1.77;1.67;;;23.70;39.70;;;;;;4999183;28;20148;-58
2023/05/09 06:19:15;;;;;;;2.22;1.83;;;23.70;39.50;;;;;;5004222;28;20042;-58
2023/05/09 06:21:43;;;;;;;1.70;1.58;;;23.70;39.30;;;;;;5003028;28;20402;-59
2023/05/09 06:24:10;;;;;;;2.60;1.83;;;23.70;39.30;;;;;;5004710;28;20048;-56
2023/05/09 06:26:54;;;;;;;1.50;1.40;;;23.70;39.20;;;;;;5003083;28;20511;-58
2023/05/09 06:29:22;;;;;;;5.93;1.92;;;23.70;39.10;;;;;;4997636;28;20054;-59
2023/05/09 06:31:50;;;;;;;7.60;1.70;;;23.80;39.10;;;;;;5004038;28;20133;-59
2023/05/09 06:34:17;;;;;;;2.67;1.85;;;23.80;39.00;;;;;;5004103;28;20502;-59
2023/05/09 06:36:45;;;;;;;1.50;1.40;;;23.80;38.80;;;;;;5003577;28;20042;-59
2023/05/09 06:39:12;;;;;;;3.03;2.00;;;23.90;38.90;;;;;;5004053;28;20660;-58
2023/05/09 06:41:40;;;;;;;3.47;1.65;;;23.90;38.70;;;;;;5003373;28;20439;-57
2023/05/09 06:44:07;;;;;;;1.92;1.77;;;23.90;38.70;;;;;;5003968;28;20426;-57
2023/05/09 06:46:34;;;;;;;4.43;1.77;;;23.90;38.60;;;;;;5006583;28;20145;-58
2023/05/09 06:49:02;;;;;;;3.33;1.60;;;23.90;38.40;;;;;;5006942;28;20050;-58
2023/05/09 06:51:30;;;;;;;5.18;1.50;;;24.00;38.30;;;;;;5005620;28;20478;-56
2023/05/09 06:53:57;;;;;;;1.98;1.70;;;24.00;38.10;;;;;;5006520;28;20136;-56
2023/05/09 06:56:25;;;;;;;1.70;1.45;;;24.10;38.20;;;;;;5007224;28;20081;-58
2023/05/09 06:58:53;;;;;;;1.90;1.67;;;24.10;38.00;;;;;;5006500;28;20041;-58
2023/05/09 07:01:20;;;;;;;2.35;1.83;;;24.10;37.80;;;;;;5005397;28;20128;-59
2023/05/09 07:03:47;;;;;;;2.20;1.55;;;24.10;37.60;;;;;;5003662;28;20145;-57
2023/05/09 07:06:14;;;;;;;1.63;1.52;;;24.20;37.60;;;;;;5005209;28;20100;-57
2023/05/09 07:08:41;;;;;;;1.52;1.42;;;24.20;37.60;;;;;;5001989;28;20054;-57
2023/05/09 07:11:09;;;;;;;3.67;1.90;;;24.30;37.40;;;;;;5004990;28;20037;-57
2023/05/09 07:13:36;;;;;;;2.53;1.75;;;24.30;37.30;;;;;;5004804;28;20054;-58
2023/05/09 07:16:03;;;;;;;2.92;1.63;;;24.30;37.20;;;;;;5002737;28;20077;-58
2023/05/09 07:18:31;;;;;;;2.55;2.35;;;24.30;37.20;;;;;;4999178;28;20144;-58
2023/05/09 07:20:58;;;;;;;1.73;1.63;;;24.30;37.30;;;;;;5004127;28;20517;-58
2023/05/09 07:23:25;;;;;;;2.63;1.83;;;24.30;37.20;;;;;;4998020;28;20084;-59
2023/05/09 07:25:57;;;;;;;2.05;1.40;;;24.40;37.10;;;;;;4998495;28;20060;-57
2023/05/09 07:28:24;;;;;;;3.33;1.55;;;24.40;37.20;;;;;;5002706;28;20046;-55
2023/05/09 07:30:55;;;;;;;2.85;1.73;;;24.40;37.20;;;;;;5006315;28;20042;-58
2023/05/09 07:33:23;;;;;;;5.93;1.80;;;24.50;37.30;;;;;;5005226;28;20478;-55
2023/05/09 07:35:51;;;;;;;1.60;1.50;;;24.50;37.20;;;;;;5004043;28;20463;-58
2023/05/09 07:38:21;;;;;;;3.08;1.65;;;24.50;37.30;;;;;;5003667;28;20104;-56
2023/05/09 07:40:48;;;;;;;1.35;1.23;;;24.50;37.20;;;;;;5008890;28;20133;-57
2023/05/09 07:43:15;;;;;;;4.38;2.58;;;24.50;37.20;;;;;;4998489;28;20140;-58
2023/05/09 07:45:43;;;;;;;1.67;1.48;;;24.60;37.80;;;;;;4998635;28;20050;-58
2023/05/09 07:48:11;;;;;;;4.47;1.60;;;24.60;37.30;;;;;;4998427;28;20390;-58
2023/05/09 07:50:39;;;;;;;2.80;1.90;;;24.60;37.20;;;;;;5001236;28;20127;-59
2023/05/09 07:53:06;;;;;;;3.65;1.70;;;24.70;37.40;;;;;;5000817;28;20077;-57
2023/05/09 07:55:33;;;;;;;2.92;2.00;;;24.70;37.40;;;;;;5007203;28;20053;-57
2023/05/09 07:58:00;;;;;;;2.08;1.83;;;24.70;37.40;;;;;;5000628;28;20077;-57
2023/05/09 08:00:28;;;;;;;2.08;1.83;;;24.70;37.30;;;;;;5002524;28;20589;-56
2023/05/09 08:02:55;;;;;;;2.13;1.90;;;24.80;37.30;;;;;;5001520;28;20057;-56
2023/05/09 08:05:22;;;;;;;2.92;1.88;;;24.80;37.30;;;;;;5005187;28;20054;-54
2023/05/09 08:07:50;;;;;;;2.92;2.05;;;24.80;37.20;;;;;;5003539;28;20450;-51
2023/05/09 08:10:17;;;;;;;2.78;1.75;;;24.90;37.20;;;;;;5001276;28;20069;-56
2023/05/09 08:12:44;;;;;;;1.52;1.42;;;24.90;37.30;;;;;;4999491;28;20136;-56
2023/05/09 08:15:11;;;;;;;4.88;1.90;;;24.90;37.30;;;;;;5004471;28;20049;-56
2023/05/09 08:17:39;;;;;;;2.00;1.80;;;24.90;37.40;;;;;;5003669;28;20444;-57
2023/05/09 08:20:07;;;;;;;2.58;1.70;;;24.90;37.40;;;;;;5002599;28;20068;-55
2023/05/09 08:22:35;;;;;;;2.95;1.65;;;25.00;37.30;;;;;;5003057;28;20445;-56
2023/05/09 08:25:02;;;;;;;4.95;1.85;;;25.00;37.20;;;;;;5002905;28;20061;-56
2023/05/09 08:27:29;;;;;;;5.60;1.75;;;25.00;37.10;;;;;;5004022;28;20137;-55
2023/05/09 08:29:56;;;;;;;2.03;1.70;;;25.00;37.10;;;;;;5005847;28;20050;-57
2023/05/09 08:32:23;;;;;;;2.60;1.95;;;25.10;37.00;;;;;;5003777;28;20154;-57
2023/05/09 08:34:51;;;;;;;2.17;1.98;;;25.00;36.90;;;;;;5007153;28;20058;-55
2023/05/09 08:37:19;;;;;;;2.50;1.85;;;25.10;36.90;;;;;;5011055;28;20049;-56
2023/05/09 08:39:47;;;;;;;2.58;1.52;;;25.10;36.90;;;;;;5010134;28;20053;-57
2023/05/09 08:42:19;;;;;;;2.13;1.70;;;25.10;36.90;;;;;;5004303;28;20073;-56
2023/05/09 08:44:46;;;;;;;1.95;1.85;;;25.10;36.80;;;;;;5008955;28;20045;-56
2023/05/09 08:47:14;;;;;;;2.22;1.60;;;25.10;36.70;;;;;;5007694;28;20050;-56
2023/05/09 08:49:42;;;;;;;2.33;1.90;;;25.10;36.70;;;;;;5002774;28;20084;-60
2023/05/09 08:52:10;;;;;;;1.63;1.52;;;25.20;36.70;;;;;;5001157;28;20062;-56
2023/05/09 08:54:38;;;;;;;2.53;1.98;;;25.20;36.70;;;;;;5003710;28;20100;-56
2023/05/09 08:57:05;;;;;;;1.77;1.67;;;25.20;36.60;;;;;;5004057;28;20589;-55
2023/05/09 08:59:36;;;;;;;2.63;1.73;;;25.20;36.60;;;;;;5005341;28;20075;-55
2023/05/09 09:02:06;;;;;;;1.50;1.40;;;25.30;36.60;;;;;;5003658;28;21104;-54
2023/05/09 09:04:34;;;;;;;3.35;1.73;;;25.20;36.50;;;;;;5005408;28;20152;-53
2023/05/09 09:07:04;;;;;;;2.60;1.50;;;25.30;36.60;;;;;;5004819;28;20061;-51
2023/05/09 09:09:34;;;;;;;1.05;0.93;;;25.30;36.50;;;;;;5004924;28;20643;-59
2023/05/09 09:12:05;;;;;;;;;;;25.30;36.40;;;;;;5005471;28;20050;-52
2023/05/09 09:14:38;;;;;;;4.88;1.40;;;25.40;36.40;;;;;;5005175;28;19928;-56
2023/05/09 09:17:08;;;;;;;1.77;1.67;;;25.30;36.40;;;;;;5010930;28;20096;-55
2023/05/09 09:19:39;;;;;;;2.47;1.45;;;25.40;36.40;;;;;;5008190;28;20485;-58
2023/05/09 09:22:10;;;;;;;1.77;1.48;;;25.40;36.50;;;;;;5004322;28;20057;-56
2023/05/09 09:24:38;;;;;;;1.77;1.50;;;25.40;36.40;;;;;;5005231;28;20057;-57
2023/05/09 09:27:06;;;;;;;3.63;1.42;;;25.40;36.40;;;;;;5004933;28;20046;-56
2023/05/09 09:29:33;;;;;;;2.08;1.92;;;25.40;36.30;;;;;;5005200;28;20056;-58
2023/05/09 09:32:02;;;;;;;4.35;1.60;;;25.40;36.30;;;;;;5006285;28;20042;-54
2023/05/09 09:34:30;;;;;;;1.58;1.48;;;25.50;36.30;;;;;;5002675;28;20053;-57
2023/05/09 09:36:57;;;;;;;2.08;1.67;;;25.50;36.30;;;;;;4996428;28;20129;-57
2023/05/09 09:39:24;;;;;;;1.60;1.50;;;25.50;36.30;;;;;;4996183;28;20078;-55
2023/05/09 09:41:52;;;;;;;1.52;1.40;;;25.50;36.30;;;;;;4992932;28;20081;-56
2023/05/09 09:44:21;;;;;;;2.00;1.77;;;25.50;36.30;;;;;;5006244;28;20133;-55
2023/05/09 09:46:53;;;;;;;2.38;1.70;;;25.60;36.30;;;;;;5005734;28;20150;-58
2023/05/09 09:49:22;;;;;;;1.48;1.40;;;25.50;36.30;;;;;;4997074;28;20625;-56
2023/05/09 09:51:55;;;;;;;3.42;2.60;;;25.60;36.30;;;;;;5001974;28;20125;-58
2023/05/09 09:54:25;;;;;;;1.73;1.63;;;25.50;36.10;;;;;;5004100;28;20108;-59
2023/05/09 09:56:53;;;;;;;4.75;1.50;;;25.50;36.10;;;;;;5005699;28;20053;-58
2023/05/09 09:59:25;;;;;;;1.60;1.50;;;25.50;36.10;;;;;;5006630;28;20134;-59
2023/05/09 10:02:05;;;;;;;2.45;1.77;;;25.50;36.10;;;;;;4999871;28;20103;-58
2023/05/09 10:04:37;;;;;;;2.72;1.70;;;25.50;36.00;;;;;;4995109;28;20053;-60
2023/05/09 10:07:09;;;;;;;1.58;1.40;;;25.50;36.00;;;;;;5005118;28;20084;-60
2023/05/09 10:09:42;;;;;;;1.60;1.33;;;25.50;36.00;;;;;;4995328;28;20050;-59
2023/05/09 10:12:13;;;;;;;3.17;1.60;;;25.50;35.90;;;;;;5010867;28;20557;-60
2023/05/09 10:14:42;;;;;;;2.58;1.58;;;25.40;35.70;;;;;;5009869;28;20141;-64
2023/05/09 10:17:12;;;;;;;1.35;1.25;;;25.40;35.70;;;;;;5006482;28;20057;-62
2023/05/09 10:19:45;;;;;;;1.67;1.55;;;25.40;35.80;;;;;;5005870;28;20490;-60
2023/05/09 10:22:15;;;;;;;4.88;1.48;;;25.40;35.80;;;;;;5007459;28;20092;-61
2023/05/09 10:25:02;;;;;;;1.83;1.60;;;25.40;35.80;;;;;;5010169;28;20085;-57
2023/05/09 10:27:33;;;;;;;2.25;1.70;;;25.40;35.70;;;;;;5009600;28;20054;-61
2023/05/09 10:30:10;;;;;;;2.72;1.27;;;25.40;35.70;;;;;;5009587;28;20049;-59
2023/05/09 10:33:02;;;;;;;3.25;1.55;;;25.50;35.80;;;;;;5009366;28;20750;-56
2023/05/09 10:35:35;;;;;;;1.60;1.50;;;25.50;35.80;;;;;;4992969;28;20050;-57
2023/05/09 10:38:03;;;;;;;5.22;1.75;;;25.50;35.70;;;;;;5007590;28;20084;-57
2023/05/09 10:40:31;;;;;;;3.42;1.23;;;25.50;35.60;;;;;;5008788;28;20505;-56
2023/05/09 10:42:58;;;;;;;1.88;1.33;;;25.60;35.70;;;;;;5000981;28;20045;-56
2023/05/09 10:45:26;;;;;;;1.40;1.23;;;25.60;35.70;;;;;;4997715;28;20050;-56
2023/05/09 10:47:55;;;;;;;3.25;1.35;;;25.60;35.70;;;;;;5002058;28;20046;-51
2023/05/09 10:50:23;;;;;;;1.70;1.23;;;25.60;35.80;;;;;;5006933;28;20088;-59
2023/05/09 10:53:06;;;;;;;4.82;1.23;;;25.60;35.80;;;;;;5007703;28;20045;-68
2023/05/09 10:55:55;;;;;;;2.42;1.52;;;25.60;35.80;;;;;;5006540;28;20104;-55
2023/05/09 10:58:32;;;;;;;2.13;1.27;;;25.60;35.80;;;;;;5001683;28;20502;-56
2023/05/09 11:01:01;;;;;;;1.33;1.23;;;25.60;35.80;;;;;;5005162;28;20052;-54
2023/05/09 11:03:56;;;;;;;1.55;1.38;;;25.60;35.90;;;;;;5006542;28;20045;-54
2023/05/09 11:06:49;;;;;;;1.65;1.35;;;25.60;35.80;;;;;;5002930;28;20133;-52
2023/05/09 11:09:40;;;;;;;1.50;1.40;;;25.70;35.90;;;;;;4998654;28;20235;-50
2023/05/09 11:12:13;;;;;;;1.40;1.30;;;25.70;35.80;;;;;;5004529;28;20054;-55
2023/05/09 11:14:45;;;;;;;3.63;1.40;;;25.70;35.70;;;;;;5001837;28;20060;-54
2023/05/09 11:17:28;;;;;;;1.58;1.48;;;25.70;35.70;;;;;;5005023;28;20045;-56
2023/05/09 11:19:58;;;;;;;1.40;1.30;;;25.70;35.60;;;;;;5001879;28;20076;-52
2023/05/09 11:22:36;;;;;;;2.97;1.55;;;25.70;35.70;;;;;;5004744;28;20046;-55
2023/05/09 11:25:10;;;;;;;2.30;1.45;;;25.70;35.60;;;;;;5007853;28;20171;-53
2023/05/09 11:27:46;;;;;;;1.58;1.48;;;25.80;35.60;;;;;;5001797;28;20582;-54
2023/05/09 11:30:15;;;;;;;4.22;1.58;;;25.70;35.50;;;;;;5003485;28;20046;-56
2023/05/09 11:32:52;;;;;;;4.47;1.85;;;25.70;35.50;;;;;;5000380;28;20045;-55
2023/05/09 11:35:21;;;;;;;1.63;1.10;;;25.70;35.50;;;;;;5004857;28;20049;-55
2023/05/09 11:38:06;;;;;;;1.60;1.25;;;25.70;35.50;;;;;;5003514;28;20088;-54
2023/05/09 11:40:34;;;;;;;2.38;1.60;;;25.70;35.40;;;;;;5005307;28;20053;-55
2023/05/09 11:43:01;;;;;;;1.75;1.65;;;25.70;35.30;;;;;;5002529;28;20049;-55
2023/05/09 11:45:31;;;;;;;1.58;1.20;;;25.70;36.00;;;;;;5000236;28;20046;-57
2023/05/09 11:47:59;;;;;;;2.67;1.15;;;25.70;35.40;;;;;;5004462;28;20142;-57
2023/05/09 11:50:28;;;;;;;2.78;1.20;;;25.80;35.40;;;;;;4999374;28;20305;-57
2023/05/09 11:52:55;;;;;;;1.77;1.58;;;25.80;35.20;;;;;;5001136;28;20449;-57
2023/05/09 11:55:24;;;;;;;1.40;1.10;;;25.70;35.10;;;;;;5003865;28;20148;-58
2023/05/09 11:57:53;;;;;;;2.67;1.67;;;25.80;35.10;;;;;;5001478;28;20042;-57
2023/05/09 12:00:22;;;;;;;5.00;1.60;;;25.80;35.00;;;;;;5002145;28;20065;-54
2023/05/09 12:02:50;;;;;;;6.83;1.67;;;25.80;35.00;;;;;;5006136;28;20060;-57
2023/05/09 12:05:19;;;;;;;1.50;1.38;;;25.80;35.00;;;;;;5007078;28;20073;-55
2023/05/09 12:07:47;;;;;;;4.65;1.52;;;25.80;35.00;;;;;;5005845;28;20042;-57
2023/05/09 12:10:18;;;;;;;1.52;1.10;;;25.90;35.10;;;;;;5006025;28;20051;-56
2023/05/09 12:12:48;;;;;;;1.65;1.33;;;25.90;35.00;;;;;;5007991;28;20042;-55
2023/05/09 12:15:16;;;;;;;1.77;1.63;;;25.90;34.90;;;;;;5004995;28;20417;-58
2023/05/09 12:17:45;;;;;;;6.13;1.40;;;25.90;34.90;;;;;;5005400;28;20506;-58
2023/05/09 12:20:15;;;;;;;1.55;1.42;;;25.90;34.90;;;;;;5006305;28;20053;-54
2023/05/09 12:22:43;;;;;;;1.40;1.30;;;25.90;35.00;;;;;;5006571;28;20052;-56
2023/05/09 12:25:10;;;;;;;1.15;1.05;;;25.90;35.00;;;;;;5008396;28;20132;-57
2023/05/09 12:27:40;;;;;;;2.08;1.30;;;26.00;35.00;;;;;;5007001;28;20089;-58
2023/05/09 12:30:09;;;;;;;3.08;1.20;;;26.00;34.90;;;;;;5001618;28;20164;-59
2023/05/09 12:32:38;;;;;;;1.83;1.38;;;26.00;35.00;;;;;;5005244;28;20319;-57
2023/05/09 12:35:09;;;;;;;1.30;1.20;;;26.00;35.00;;;;;;5011688;28;20403;-55
2023/05/09 12:37:37;;;;;;;2.85;1.27;;;26.00;34.90;;;;;;4991956;28;20045;-57
2023/05/09 12:40:14;;;;;;;2.03;1.35;;;26.00;34.90;;;;;;5008604;28;20054;-57
2023/05/09 12:42:44;;;;;;;3.13;1.10;;;26.00;35.00;;;;;;5009547;28;20053;-55
2023/05/09 12:45:12;;;;;;;1.13;0.80;;;26.00;34.90;;;;;;5011214;28;20076;-56
2023/05/09 12:47:41;;;;;;;2.97;1.27;;;26.00;34.90;;;;;;5005730;28;20120;-58
2023/05/09 12:50:12;;;;;;;2.80;0.98;;;26.00;34.90;;;;;;5005607;28;20062;-57
2023/05/09 12:52:41;;;;;;;2.97;1.33;;;26.00;34.90;;;;;;5005724;28;20050;-57
2023/05/09 12:55:27;;;;;;;1.88;0.80;;;26.10;35.00;;;;;;5004419;28;20050;-55
2023/05/09 12:57:58;;;;;;;1.25;1.10;;;26.10;35.00;;;;;;5008389;28;20054;-54
2023/05/09 13:00:26;;;;;;;3.13;1.15;;;26.10;35.50;;;;;;5007338;28;20069;-55